sensor_id;sensor_type;location;lat;lon;timestamp;P1;durP1;ratioP1;P2;durP2;ratioP2
55989;SDS011;41875;55.806;38.082;2023-06-10T00:00:12;6.13;;;2.35;;
55989;SDS011;41875;55.806;38.082;2023-06-10T00:02:42;6.95;;;2.55;;
55989;SDS011;41875;55.806;38.082;2023-06-10T00:07:39;5.28;;;2.45;;
55989;SDS011;41875;55.806;38.082;2023-06-10T00:12:37;4.25;;;2.25;;
55989;SDS011;41875;55.806;38.082;2023-06-10T00:15:09;8.25;;;2.72;;
55989;SDS011;41875;55.806;38.082;2023-06-10T00:17:38;5.57;;;2.40;;
55989;SDS011;41875;55.806;38.082;2023-06-10T00:22:39;6.47;;;2.47;;
55989;SDS011;41875;55.806;38.082;2023-06-10T00:25:09;6.68;;;2.50;;
55989;SDS011;41875;55.806;38.082;2023-06-10T00:27:38;5.60;;;2.30;;
55989;SDS011;41875;55.806;38.082;2023-06-10T00:30:09;5.25;;;2.30;;
55989;SDS011;41875;55.806;38.082;2023-06-10T00:32:38;5.47;;;2.20;;
55989;SDS011;41875;55.806;38.082;2023-06-10T00:35:10;6.93;;;2.38;;
55989;SDS011;41875;55.806;38.082;2023-06-10T00:37:39;4.03;;;2.22;;
55989;SDS011;41875;55.806;38.082;2023-06-10T00:45:05;5.53;;;2.30;;
55989;SDS011;41875;55.806;38.082;2023-06-10T00:47:37;8.18;;;3.00;;
55989;SDS011;41875;55.806;38.082;2023-06-10T00:50:07;6.03;;;2.35;;
55989;SDS011;41875;55.806;38.082;2023-06-10T00:52:36;7.15;;;2.80;;
55989;SDS011;41875;55.806;38.082;2023-06-10T00:55:05;6.72;;;2.70;;
55989;SDS011;41875;55.806;38.082;2023-06-10T00:57:35;5.32;;;2.75;;
55989;SDS011;41875;55.806;38.082;2023-06-10T01:00:06;7.85;;;3.20;;
55989;SDS011;41875;55.806;38.082;2023-06-10T01:02:38;7.88;;;3.28;;
55989;SDS011;41875;55.806;38.082;2023-06-10T01:05:07;5.78;;;2.67;;
55989;SDS011;41875;55.806;38.082;2023-06-10T01:07:38;5.40;;;2.47;;
55989;SDS011;41875;55.806;38.082;2023-06-10T01:10:16;4.85;;;2.13;;
55989;SDS011;41875;55.806;38.082;2023-06-10T01:12:49;5.65;;;2.83;;
55989;SDS011;41875;55.806;38.082;2023-06-10T01:15:23;4.20;;;2.30;;
55989;SDS011;41875;55.806;38.082;2023-06-10T01:17:56;8.38;;;3.20;;
55989;SDS011;41875;55.806;38.082;2023-06-10T01:20:26;6.68;;;2.75;;
55989;SDS011;41875;55.806;38.082;2023-06-10T01:22:58;5.55;;;2.42;;
55989;SDS011;41875;55.806;38.082;2023-06-10T01:25:27;5.38;;;2.40;;
55989;SDS011;41875;55.806;38.082;2023-06-10T01:28:02;6.60;;;3.25;;
55989;SDS011;41875;55.806;38.082;2023-06-10T01:30:37;5.25;;;2.20;;
55989;SDS011;41875;55.806;38.082;2023-06-10T01:33:13;5.40;;;2.40;;
55989;SDS011;41875;55.806;38.082;2023-06-10T01:35:46;5.13;;;2.53;;
55989;SDS011;41875;55.806;38.082;2023-06-10T01:38:17;7.38;;;2.80;;
55989;SDS011;41875;55.806;38.082;2023-06-10T01:40:48;9.18;;;2.70;;
55989;SDS011;41875;55.806;38.082;2023-06-10T01:43:19;7.07;;;2.88;;
55989;SDS011;41875;55.806;38.082;2023-06-10T01:45:49;4.75;;;2.10;;
55989;SDS011;41875;55.806;38.082;2023-06-10T01:50:47;9.25;;;2.70;;
55989;SDS011;41875;55.806;38.082;2023-06-10T01:53:15;10.60;;;5.00;;
55989;SDS011;41875;55.806;38.082;2023-06-10T01:55:46;6.88;;;2.80;;
55989;SDS011;41875;55.806;38.082;2023-06-10T01:58:16;8.45;;;2.60;;
55989;SDS011;41875;55.806;38.082;2023-06-10T02:00:44;5.93;;;2.38;;
55989;SDS011;41875;55.806;38.082;2023-06-10T02:03:13;4.43;;;1.67;;
55989;SDS011;41875;55.806;38.082;2023-06-10T02:05:42;4.70;;;2.30;;
55989;SDS011;41875;55.806;38.082;2023-06-10T02:08:15;5.13;;;2.05;;
55989;SDS011;41875;55.806;38.082;2023-06-10T02:10:46;4.53;;;2.17;;
55989;SDS011;41875;55.806;38.082;2023-06-10T02:13:14;4.25;;;1.77;;
55989;SDS011;41875;55.806;38.082;2023-06-10T02:18:11;7.03;;;2.15;;
55989;SDS011;41875;55.806;38.082;2023-06-10T02:20:42;4.07;;;1.90;;
55989;SDS011;41875;55.806;38.082;2023-06-10T02:23:11;5.63;;;2.10;;
55989;SDS011;41875;55.806;38.082;2023-06-10T02:25:41;5.65;;;2.40;;
55989;SDS011;41875;55.806;38.082;2023-06-10T02:28:10;4.07;;;1.55;;
55989;SDS011;41875;55.806;38.082;2023-06-10T02:30:39;6.70;;;2.30;;
55989;SDS011;41875;55.806;38.082;2023-06-10T02:33:08;4.85;;;1.92;;
55989;SDS011;41875;55.806;38.082;2023-06-10T02:35:38;4.00;;;1.92;;
55989;SDS011;41875;55.806;38.082;2023-06-10T02:38:07;5.63;;;1.90;;
55989;SDS011;41875;55.806;38.082;2023-06-10T02:40:36;3.00;;;1.52;;
55989;SDS011;41875;55.806;38.082;2023-06-10T02:43:06;4.20;;;1.88;;
55989;SDS011;41875;55.806;38.082;2023-06-10T02:45:35;6.25;;;1.70;;
55989;SDS011;41875;55.806;38.082;2023-06-10T02:48:09;5.78;;;1.83;;
55989;SDS011;41875;55.806;38.082;2023-06-10T02:50:39;4.05;;;1.35;;
55989;SDS011;41875;55.806;38.082;2023-06-10T02:53:16;5.38;;;1.58;;
55989;SDS011;41875;55.806;38.082;2023-06-10T02:55:51;3.08;;;1.60;;
55989;SDS011;41875;55.806;38.082;2023-06-10T02:58:21;5.05;;;1.65;;
55989;SDS011;41875;55.806;38.082;2023-06-10T03:00:51;3.97;;;1.60;;
55989;SDS011;41875;55.806;38.082;2023-06-10T03:05:59;4.40;;;1.40;;
55989;SDS011;41875;55.806;38.082;2023-06-10T03:08:30;3.97;;;1.75;;
55989;SDS011;41875;55.806;38.082;2023-06-10T03:11:03;4.85;;;1.70;;
55989;SDS011;41875;55.806;38.082;2023-06-10T03:13:35;2.78;;;1.33;;
55989;SDS011;41875;55.806;38.082;2023-06-10T03:16:04;4.10;;;1.77;;
55989;SDS011;41875;55.806;38.082;2023-06-10T03:18:37;2.97;;;1.45;;
55989;SDS011;41875;55.806;38.082;2023-06-10T03:21:07;3.75;;;1.38;;
55989;SDS011;41875;55.806;38.082;2023-06-10T03:23:37;3.97;;;1.58;;
55989;SDS011;41875;55.806;38.082;2023-06-10T03:26:06;4.35;;;1.50;;
55989;SDS011;41875;55.806;38.082;2023-06-10T03:28:41;5.18;;;1.35;;
55989;SDS011;41875;55.806;38.082;2023-06-10T03:31:10;2.75;;;1.50;;
55989;SDS011;41875;55.806;38.082;2023-06-10T03:33:39;4.75;;;1.48;;
55989;SDS011;41875;55.806;38.082;2023-06-10T03:36:08;3.80;;;1.38;;
55989;SDS011;41875;55.806;38.082;2023-06-10T03:38:37;3.90;;;1.35;;
55989;SDS011;41875;55.806;38.082;2023-06-10T03:41:07;3.15;;;1.40;;
55989;SDS011;41875;55.806;38.082;2023-06-10T03:43:38;2.75;;;1.40;;
55989;SDS011;41875;55.806;38.082;2023-06-10T03:46:10;2.55;;;1.27;;
55989;SDS011;41875;55.806;38.082;2023-06-10T03:48:39;3.60;;;1.30;;
55989;SDS011;41875;55.806;38.082;2023-06-10T03:51:09;2.85;;;1.38;;
55989;SDS011;41875;55.806;38.082;2023-06-10T03:53:38;5.45;;;2.97;;
55989;SDS011;41875;55.806;38.082;2023-06-10T03:56:06;5.45;;;1.40;;
55989;SDS011;41875;55.806;38.082;2023-06-10T03:58:35;4.38;;;1.42;;
55989;SDS011;41875;55.806;38.082;2023-06-10T04:01:05;4.15;;;1.40;;
55989;SDS011;41875;55.806;38.082;2023-06-10T04:03:36;2.20;;;1.00;;
55989;SDS011;41875;55.806;38.082;2023-06-10T04:06:06;3.38;;;1.10;;
55989;SDS011;41875;55.806;38.082;2023-06-10T04:08:34;8.52;;;1.30;;
55989;SDS011;41875;55.806;38.082;2023-06-10T04:11:03;8.85;;;2.70;;
55989;SDS011;41875;55.806;38.082;2023-06-10T04:13:31;4.45;;;1.58;;
55989;SDS011;41875;55.806;38.082;2023-06-10T04:16:01;2.42;;;1.20;;
55989;SDS011;41875;55.806;38.082;2023-06-10T04:18:29;4.82;;;1.23;;
55989;SDS011;41875;55.806;38.082;2023-06-10T04:21:05;4.20;;;1.30;;
55989;SDS011;41875;55.806;38.082;2023-06-10T04:23:34;3.63;;;1.30;;
55989;SDS011;41875;55.806;38.082;2023-06-10T04:26:04;3.13;;;1.50;;
55989;SDS011;41875;55.806;38.082;2023-06-10T04:28:33;1.90;;;1.20;;
55989;SDS011;41875;55.806;38.082;2023-06-10T04:31:03;6.13;;;3.72;;
55989;SDS011;41875;55.806;38.082;2023-06-10T04:33:32;4.60;;;1.60;;
55989;SDS011;41875;55.806;38.082;2023-06-10T04:36:08;3.03;;;1.48;;
55989;SDS011;41875;55.806;38.082;2023-06-10T04:38:37;3.38;;;1.40;;
55989;SDS011;41875;55.806;38.082;2023-06-10T04:43:35;4.70;;;1.38;;
55989;SDS011;41875;55.806;38.082;2023-06-10T04:46:04;3.20;;;1.20;;
55989;SDS011;41875;55.806;38.082;2023-06-10T04:48:35;2.42;;;1.17;;
55989;SDS011;41875;55.806;38.082;2023-06-10T04:53:34;1.35;;;0.80;;
55989;SDS011;41875;55.806;38.082;2023-06-10T04:58:31;3.15;;;1.33;;
55989;SDS011;41875;55.806;38.082;2023-06-10T05:01:00;2.75;;;1.20;;
55989;SDS011;41875;55.806;38.082;2023-06-10T05:03:29;4.65;;;1.70;;
55989;SDS011;41875;55.806;38.082;2023-06-10T05:06:00;2.08;;;1.10;;
55989;SDS011;41875;55.806;38.082;2023-06-10T05:08:31;2.42;;;1.17;;
55989;SDS011;41875;55.806;38.082;2023-06-10T05:11:03;2.75;;;1.00;;
55989;SDS011;41875;55.806;38.082;2023-06-10T05:13:31;3.03;;;1.02;;
55989;SDS011;41875;55.806;38.082;2023-06-10T05:16:00;3.78;;;1.00;;
55989;SDS011;41875;55.806;38.082;2023-06-10T05:18:31;1.90;;;1.00;;
55989;SDS011;41875;55.806;38.082;2023-06-10T05:21:00;1.83;;;1.00;;
55989;SDS011;41875;55.806;38.082;2023-06-10T05:23:31;2.30;;;0.98;;
55989;SDS011;41875;55.806;38.082;2023-06-10T05:26:00;4.47;;;1.00;;
55989;SDS011;41875;55.806;38.082;2023-06-10T05:28:29;6.30;;;2.67;;
55989;SDS011;41875;55.806;38.082;2023-06-10T05:31:01;2.90;;;1.25;;
55989;SDS011;41875;55.806;38.082;2023-06-10T05:33:29;2.50;;;1.23;;
55989;SDS011;41875;55.806;38.082;2023-06-10T05:35:58;1.73;;;0.70;;
55989;SDS011;41875;55.806;38.082;2023-06-10T05:38:29;1.90;;;0.90;;
55989;SDS011;41875;55.806;38.082;2023-06-10T05:40:59;2.67;;;1.08;;
55989;SDS011;41875;55.806;38.082;2023-06-10T05:43:28;3.47;;;1.10;;
55989;SDS011;41875;55.806;38.082;2023-06-10T05:45:56;2.85;;;0.95;;
55989;SDS011;41875;55.806;38.082;2023-06-10T05:48:25;3.08;;;1.25;;
55989;SDS011;41875;55.806;38.082;2023-06-10T05:50:54;3.60;;;1.05;;
55989;SDS011;41875;55.806;38.082;2023-06-10T05:53:22;1.02;;;0.70;;
55989;SDS011;41875;55.806;38.082;2023-06-10T05:55:53;3.05;;;1.10;;
55989;SDS011;41875;55.806;38.082;2023-06-10T05:58:25;3.35;;;1.30;;
55989;SDS011;41875;55.806;38.082;2023-06-10T06:00:56;3.67;;;1.20;;
55989;SDS011;41875;55.806;38.082;2023-06-10T06:03:25;4.18;;;1.10;;
55989;SDS011;41875;55.806;38.082;2023-06-10T06:05:55;1.52;;;0.90;;
55989;SDS011;41875;55.806;38.082;2023-06-10T06:08:24;3.20;;;1.17;;
55989;SDS011;41875;55.806;38.082;2023-06-10T06:10:52;4.78;;;1.05;;
55989;SDS011;41875;55.806;38.082;2023-06-10T06:13:22;2.33;;;1.05;;
55989;SDS011;41875;55.806;38.082;2023-06-10T06:15:52;7.95;;;1.23;;
55989;SDS011;41875;55.806;38.082;2023-06-10T06:18:23;2.80;;;1.00;;
55989;SDS011;41875;55.806;38.082;2023-06-10T06:20:54;3.20;;;1.05;;
55989;SDS011;41875;55.806;38.082;2023-06-10T06:25:51;2.90;;;1.33;;
55989;SDS011;41875;55.806;38.082;2023-06-10T06:28:20;1.35;;;0.85;;
55989;SDS011;41875;55.806;38.082;2023-06-10T06:30:49;2.92;;;1.25;;
55989;SDS011;41875;55.806;38.082;2023-06-10T06:33:19;2.85;;;1.10;;
55989;SDS011;41875;55.806;38.082;2023-06-10T06:35:48;1.80;;;0.85;;
55989;SDS011;41875;55.806;38.082;2023-06-10T06:38:16;5.32;;;0.90;;
55989;SDS011;41875;55.806;38.082;2023-06-10T06:40:46;4.63;;;2.38;;
55989;SDS011;41875;55.806;38.082;2023-06-10T06:46:02;1.70;;;0.70;;
55989;SDS011;41875;55.806;38.082;2023-06-10T06:51:01;0.93;;;0.60;;
55989;SDS011;41875;55.806;38.082;2023-06-10T06:53:29;2.70;;;0.80;;
55989;SDS011;41875;55.806;38.082;2023-06-10T06:56:00;4.20;;;0.90;;
55989;SDS011;41875;55.806;38.082;2023-06-10T06:58:29;0.77;;;0.50;;
55989;SDS011;41875;55.806;38.082;2023-06-10T07:01:04;4.68;;;0.95;;
55989;SDS011;41875;55.806;38.082;2023-06-10T07:03:36;2.83;;;0.90;;
55989;SDS011;41875;55.806;38.082;2023-06-10T07:06:05;4.70;;;0.98;;
55989;SDS011;41875;55.806;38.082;2023-06-10T07:08:33;4.20;;;0.90;;
55989;SDS011;41875;55.806;38.082;2023-06-10T07:11:02;1.02;;;0.60;;
55989;SDS011;41875;55.806;38.082;2023-06-10T07:13:31;2.10;;;0.90;;
55989;SDS011;41875;55.806;38.082;2023-06-10T07:16:00;4.18;;;0.90;;
55989;SDS011;41875;55.806;38.082;2023-06-10T07:20:58;1.10;;;0.63;;
55989;SDS011;41875;55.806;38.082;2023-06-10T07:23:27;0.95;;;0.45;;
55989;SDS011;41875;55.806;38.082;2023-06-10T07:25:56;0.90;;;0.43;;
55989;SDS011;41875;55.806;38.082;2023-06-10T07:28:24;0.63;;;0.50;;
55989;SDS011;41875;55.806;38.082;2023-06-10T07:30:53;5.10;;;2.28;;
55989;SDS011;41875;55.806;38.082;2023-06-10T07:35:50;2.33;;;0.80;;
55989;SDS011;41875;55.806;38.082;2023-06-10T07:38:20;1.17;;;0.43;;
55989;SDS011;41875;55.806;38.082;2023-06-10T07:40:49;3.00;;;0.85;;
55989;SDS011;41875;55.806;38.082;2023-06-10T07:43:18;2.20;;;0.77;;
55989;SDS011;41875;55.806;38.082;2023-06-10T07:45:46;1.23;;;0.52;;
55989;SDS011;41875;55.806;38.082;2023-06-10T07:48:15;1.75;;;0.77;;
55989;SDS011;41875;55.806;38.082;2023-06-10T07:50:43;3.35;;;0.50;;
55989;SDS011;41875;55.806;38.082;2023-06-10T07:55:42;1.80;;;0.65;;
55989;SDS011;41875;55.806;38.082;2023-06-10T07:58:11;2.75;;;0.55;;
55989;SDS011;41875;55.806;38.082;2023-06-10T08:00:39;0.98;;;0.50;;
55989;SDS011;41875;55.806;38.082;2023-06-10T08:03:08;1.85;;;0.70;;
55989;SDS011;41875;55.806;38.082;2023-06-10T08:05:37;0.73;;;0.60;;
55989;SDS011;41875;55.806;38.082;2023-06-10T08:08:08;1.35;;;0.50;;
55989;SDS011;41875;55.806;38.082;2023-06-10T08:10:37;0.80;;;0.50;;
55989;SDS011;41875;55.806;38.082;2023-06-10T08:13:07;1.38;;;0.73;;
55989;SDS011;41875;55.806;38.082;2023-06-10T08:15:36;2.90;;;0.70;;
55989;SDS011;41875;55.806;38.082;2023-06-10T08:18:05;1.80;;;0.80;;
55989;SDS011;41875;55.806;38.082;2023-06-10T08:20:36;2.47;;;0.88;;
55989;SDS011;41875;55.806;38.082;2023-06-10T08:23:08;3.85;;;0.70;;
55989;SDS011;41875;55.806;38.082;2023-06-10T08:25:37;2.25;;;0.70;;
55989;SDS011;41875;55.806;38.082;2023-06-10T08:28:06;1.25;;;0.65;;
55989;SDS011;41875;55.806;38.082;2023-06-10T08:30:35;1.77;;;0.60;;
55989;SDS011;41875;55.806;38.082;2023-06-10T08:33:04;0.73;;;0.50;;
55989;SDS011;41875;55.806;38.082;2023-06-10T08:38:01;1.55;;;0.60;;
55989;SDS011;41875;55.806;38.082;2023-06-10T08:43:00;2.42;;;0.85;;
55989;SDS011;41875;55.806;38.082;2023-06-10T08:45:36;3.38;;;0.55;;
55989;SDS011;41875;55.806;38.082;2023-06-10T08:48:05;2.80;;;0.88;;
55989;SDS011;41875;55.806;38.082;2023-06-10T08:50:38;1.15;;;0.70;;
55989;SDS011;41875;55.806;38.082;2023-06-10T08:53:08;1.00;;;0.60;;
55989;SDS011;41875;55.806;38.082;2023-06-10T08:55:42;2.05;;;0.75;;
55989;SDS011;41875;55.806;38.082;2023-06-10T08:58:14;5.00;;;0.93;;
55989;SDS011;41875;55.806;38.082;2023-06-10T09:00:43;2.78;;;0.50;;
55989;SDS011;41875;55.806;38.082;2023-06-10T09:05:40;3.45;;;0.82;;
55989;SDS011;41875;55.806;38.082;2023-06-10T09:08:10;4.45;;;0.50;;
55989;SDS011;41875;55.806;38.082;2023-06-10T09:13:08;3.92;;;1.00;;
55989;SDS011;41875;55.806;38.082;2023-06-10T09:15:38;1.95;;;0.60;;
55989;SDS011;41875;55.806;38.082;2023-06-10T09:18:08;2.63;;;0.60;;
55989;SDS011;41875;55.806;38.082;2023-06-10T09:20:38;1.05;;;0.60;;
55989;SDS011;41875;55.806;38.082;2023-06-10T09:23:07;0.80;;;0.60;;
55989;SDS011;41875;55.806;38.082;2023-06-10T09:28:08;1.52;;;0.70;;
55989;SDS011;41875;55.806;38.082;2023-06-10T09:30:43;1.10;;;0.50;;
55989;SDS011;41875;55.806;38.082;2023-06-10T09:33:12;1.65;;;0.60;;
55989;SDS011;41875;55.806;38.082;2023-06-10T09:35:46;1.58;;;0.40;;
55989;SDS011;41875;55.806;38.082;2023-06-10T09:38:19;1.55;;;0.70;;
55989;SDS011;41875;55.806;38.082;2023-06-10T09:40:49;1.13;;;0.60;;
55989;SDS011;41875;55.806;38.082;2023-06-10T09:43:19;1.42;;;0.75;;
55989;SDS011;41875;55.806;38.082;2023-06-10T09:45:49;3.08;;;0.80;;
55989;SDS011;41875;55.806;38.082;2023-06-10T09:48:20;0.90;;;0.57;;
55989;SDS011;41875;55.806;38.082;2023-06-10T09:50:50;1.83;;;0.75;;
55989;SDS011;41875;55.806;38.082;2023-06-10T09:53:20;1.95;;;0.75;;
55989;SDS011;41875;55.806;38.082;2023-06-10T09:55:48;1.67;;;0.65;;
55989;SDS011;41875;55.806;38.082;2023-06-10T09:58:18;0.70;;;0.50;;
55989;SDS011;41875;55.806;38.082;2023-06-10T10:01:05;5.13;;;1.10;;
55989;SDS011;41875;55.806;38.082;2023-06-10T10:03:42;2.67;;;0.65;;
55989;SDS011;41875;55.806;38.082;2023-06-10T10:06:12;0.98;;;0.50;;
55989;SDS011;41875;55.806;38.082;2023-06-10T10:08:41;0.95;;;0.60;;
55989;SDS011;41875;55.806;38.082;2023-06-10T10:11:10;6.90;;;0.80;;
55989;SDS011;41875;55.806;38.082;2023-06-10T10:13:39;3.28;;;1.17;;
55989;SDS011;41875;55.806;38.082;2023-06-10T10:16:11;1.45;;;0.52;;
55989;SDS011;41875;55.806;38.082;2023-06-10T10:18:43;3.03;;;0.50;;
55989;SDS011;41875;55.806;38.082;2023-06-10T10:21:18;2.53;;;0.50;;
55989;SDS011;41875;55.806;38.082;2023-06-10T10:23:52;1.00;;;0.60;;
55989;SDS011;41875;55.806;38.082;2023-06-10T10:26:25;2.92;;;0.52;;
55989;SDS011;41875;55.806;38.082;2023-06-10T10:28:58;2.13;;;0.82;;
55989;SDS011;41875;55.806;38.082;2023-06-10T10:31:37;3.42;;;0.77;;
55989;SDS011;41875;55.806;38.082;2023-06-10T10:34:07;1.05;;;0.60;;
55989;SDS011;41875;55.806;38.082;2023-06-10T10:36:40;1.20;;;0.60;;
55989;SDS011;41875;55.806;38.082;2023-06-10T10:39:10;0.68;;;0.50;;
55989;SDS011;41875;55.806;38.082;2023-06-10T10:41:39;2.20;;;0.77;;
55989;SDS011;41875;55.806;38.082;2023-06-10T10:44:09;1.65;;;0.75;;
55989;SDS011;41875;55.806;38.082;2023-06-10T10:46:43;1.60;;;0.60;;
55989;SDS011;41875;55.806;38.082;2023-06-10T10:49:13;3.75;;;0.73;;
55989;SDS011;41875;55.806;38.082;2023-06-10T10:51:55;3.15;;;0.60;;
55989;SDS011;41875;55.806;38.082;2023-06-10T10:54:28;2.35;;;0.80;;
55989;SDS011;41875;55.806;38.082;2023-06-10T10:57:10;3.30;;;0.90;;
55989;SDS011;41875;55.806;38.082;2023-06-10T10:59:54;1.00;;;0.63;;
55989;SDS011;41875;55.806;38.082;2023-06-10T11:02:36;3.35;;;0.80;;
55989;SDS011;41875;55.806;38.082;2023-06-10T11:05:10;3.40;;;0.63;;
55989;SDS011;41875;55.806;38.082;2023-06-10T11:07:51;1.60;;;0.50;;
55989;SDS011;41875;55.806;38.082;2023-06-10T11:10:28;2.38;;;0.80;;
55989;SDS011;41875;55.806;38.082;2023-06-10T11:12:59;2.38;;;0.70;;
55989;SDS011;41875;55.806;38.082;2023-06-10T11:15:28;4.18;;;0.90;;
55989;SDS011;41875;55.806;38.082;2023-06-10T11:20:56;6.70;;;1.38;;
55989;SDS011;41875;55.806;38.082;2023-06-10T11:23:33;1.88;;;0.70;;
55989;SDS011;41875;55.806;38.082;2023-06-10T11:26:13;0.82;;;0.52;;
55989;SDS011;41875;55.806;38.082;2023-06-10T11:31:52;2.40;;;0.80;;
55989;SDS011;41875;55.806;38.082;2023-06-10T11:34:23;1.95;;;0.70;;
55989;SDS011;41875;55.806;38.082;2023-06-10T11:36:54;1.50;;;0.90;;
55989;SDS011;41875;55.806;38.082;2023-06-10T11:39:23;1.77;;;0.70;;
55989;SDS011;41875;55.806;38.082;2023-06-10T11:41:53;2.53;;;0.80;;
55989;SDS011;41875;55.806;38.082;2023-06-10T11:44:22;2.05;;;0.80;;
55989;SDS011;41875;55.806;38.082;2023-06-10T11:46:57;1.48;;;0.80;;
55989;SDS011;41875;55.806;38.082;2023-06-10T11:49:27;4.75;;;1.13;;
55989;SDS011;41875;55.806;38.082;2023-06-10T11:51:55;2.50;;;0.95;;
55989;SDS011;41875;55.806;38.082;2023-06-10T11:54:24;1.45;;;0.80;;
55989;SDS011;41875;55.806;38.082;2023-06-10T11:56:57;3.50;;;0.88;;
55989;SDS011;41875;55.806;38.082;2023-06-10T11:59:27;5.65;;;1.13;;
55989;SDS011;41875;55.806;38.082;2023-06-10T12:01:56;1.52;;;0.80;;
55989;SDS011;41875;55.806;38.082;2023-06-10T12:04:26;2.80;;;0.73;;
55989;SDS011;41875;55.806;38.082;2023-06-10T12:06:57;1.35;;;0.70;;
55989;SDS011;41875;55.806;38.082;2023-06-10T12:09:26;3.10;;;0.95;;
55989;SDS011;41875;55.806;38.082;2023-06-10T12:11:57;2.55;;;1.10;;
55989;SDS011;41875;55.806;38.082;2023-06-10T12:17:19;2.92;;;0.70;;
55989;SDS011;41875;55.806;38.082;2023-06-10T12:19:50;2.13;;;0.50;;
55989;SDS011;41875;55.806;38.082;2023-06-10T12:22:19;1.00;;;0.70;;
55989;SDS011;41875;55.806;38.082;2023-06-10T12:24:57;3.28;;;0.93;;
55989;SDS011;41875;55.806;38.082;2023-06-10T12:27:33;1.90;;;0.75;;
55989;SDS011;41875;55.806;38.082;2023-06-10T12:30:03;2.00;;;0.80;;
55989;SDS011;41875;55.806;38.082;2023-06-10T12:32:36;5.75;;;0.80;;
55989;SDS011;41875;55.806;38.082;2023-06-10T12:35:11;2.17;;;0.73;;
55989;SDS011;41875;55.806;38.082;2023-06-10T12:37:41;3.10;;;0.70;;
55989;SDS011;41875;55.806;38.082;2023-06-10T12:40:10;2.70;;;1.08;;
55989;SDS011;41875;55.806;38.082;2023-06-10T12:42:39;5.40;;;0.88;;
55989;SDS011;41875;55.806;38.082;2023-06-10T12:45:08;1.67;;;0.60;;
55989;SDS011;41875;55.806;38.082;2023-06-10T12:47:39;2.88;;;1.00;;
55989;SDS011;41875;55.806;38.082;2023-06-10T12:50:10;2.40;;;0.77;;
55989;SDS011;41875;55.806;38.082;2023-06-10T12:52:39;0.82;;;0.60;;
55989;SDS011;41875;55.806;38.082;2023-06-10T12:55:11;1.50;;;0.70;;
55989;SDS011;41875;55.806;38.082;2023-06-10T12:57:47;2.42;;;0.93;;
55989;SDS011;41875;55.806;38.082;2023-06-10T13:00:17;8.65;;;1.33;;
55989;SDS011;41875;55.806;38.082;2023-06-10T13:02:48;3.15;;;0.63;;
55989;SDS011;41875;55.806;38.082;2023-06-10T13:05:19;3.67;;;1.20;;
55989;SDS011;41875;55.806;38.082;2023-06-10T13:07:48;2.05;;;0.73;;
55989;SDS011;41875;55.806;38.082;2023-06-10T13:10:17;1.02;;;0.50;;
55989;SDS011;41875;55.806;38.082;2023-06-10T13:12:51;1.02;;;0.65;;
55989;SDS011;41875;55.806;38.082;2023-06-10T13:15:21;1.73;;;0.77;;
55989;SDS011;41875;55.806;38.082;2023-06-10T13:20:20;3.70;;;0.80;;
55989;SDS011;41875;55.806;38.082;2023-06-10T13:22:49;1.83;;;0.90;;
55989;SDS011;41875;55.806;38.082;2023-06-10T13:27:46;2.63;;;0.77;;
55989;SDS011;41875;55.806;38.082;2023-06-10T13:30:14;2.42;;;1.13;;
55989;SDS011;41875;55.806;38.082;2023-06-10T13:32:43;4.20;;;1.88;;
55989;SDS011;41875;55.806;38.082;2023-06-10T13:35:12;1.92;;;1.00;;
55989;SDS011;41875;55.806;38.082;2023-06-10T13:40:11;1.30;;;0.57;;
55989;SDS011;41875;55.806;38.082;2023-06-10T13:42:40;8.63;;;0.90;;
55989;SDS011;41875;55.806;38.082;2023-06-10T13:45:11;1.80;;;0.73;;
55989;SDS011;41875;55.806;38.082;2023-06-10T13:47:40;4.13;;;1.10;;
55989;SDS011;41875;55.806;38.082;2023-06-10T13:50:12;1.55;;;0.70;;
55989;SDS011;41875;55.806;38.082;2023-06-10T13:53:03;6.45;;;0.95;;
55989;SDS011;41875;55.806;38.082;2023-06-10T13:55:32;2.05;;;0.70;;
55989;SDS011;41875;55.806;38.082;2023-06-10T13:58:00;3.95;;;1.00;;
55989;SDS011;41875;55.806;38.082;2023-06-10T14:00:29;7.88;;;0.90;;
55989;SDS011;41875;55.806;38.082;2023-06-10T14:02:58;1.40;;;0.70;;
55989;SDS011;41875;55.806;38.082;2023-06-10T14:05:27;2.10;;;0.75;;
55989;SDS011;41875;55.806;38.082;2023-06-10T14:07:58;3.92;;;0.77;;
55989;SDS011;41875;55.806;38.082;2023-06-10T14:10:29;2.25;;;0.90;;
55989;SDS011;41875;55.806;38.082;2023-06-10T14:12:57;3.15;;;1.15;;
55989;SDS011;41875;55.806;38.082;2023-06-10T14:15:27;3.10;;;0.98;;
55989;SDS011;41875;55.806;38.082;2023-06-10T14:17:55;0.98;;;0.68;;
55989;SDS011;41875;55.806;38.082;2023-06-10T14:20:24;3.22;;;1.05;;
55989;SDS011;41875;55.806;38.082;2023-06-10T14:22:53;5.05;;;1.23;;
55989;SDS011;41875;55.806;38.082;2023-06-10T14:25:32;4.63;;;1.00;;
55989;SDS011;41875;55.806;38.082;2023-06-10T14:28:01;3.92;;;1.02;;
55989;SDS011;41875;55.806;38.082;2023-06-10T14:30:32;3.50;;;1.00;;
55989;SDS011;41875;55.806;38.082;2023-06-10T14:33:05;1.75;;;0.70;;
55989;SDS011;41875;55.806;38.082;2023-06-10T14:35:51;1.40;;;0.70;;
55989;SDS011;41875;55.806;38.082;2023-06-10T14:38:20;3.20;;;0.75;;
55989;SDS011;41875;55.806;38.082;2023-06-10T14:40:50;3.25;;;0.85;;
55989;SDS011;41875;55.806;38.082;2023-06-10T14:43:19;1.75;;;0.50;;
55989;SDS011;41875;55.806;38.082;2023-06-10T14:45:51;4.47;;;1.33;;
55989;SDS011;41875;55.806;38.082;2023-06-10T14:48:20;2.53;;;0.95;;
55989;SDS011;41875;55.806;38.082;2023-06-10T14:50:49;4.28;;;0.80;;
55989;SDS011;41875;55.806;38.082;2023-06-10T14:53:21;3.22;;;1.17;;
55989;SDS011;41875;55.806;38.082;2023-06-10T14:55:51;6.00;;;1.20;;
55989;SDS011;41875;55.806;38.082;2023-06-10T14:58:21;2.50;;;1.08;;
55989;SDS011;41875;55.806;38.082;2023-06-10T15:00:50;3.28;;;1.20;;
55989;SDS011;41875;55.806;38.082;2023-06-10T15:03:21;2.30;;;1.13;;
55989;SDS011;41875;55.806;38.082;2023-06-10T15:05:49;10.95;;;0.98;;
55989;SDS011;41875;55.806;38.082;2023-06-10T15:08:18;1.15;;;0.82;;
55989;SDS011;41875;55.806;38.082;2023-06-10T15:10:46;1.73;;;0.90;;
55989;SDS011;41875;55.806;38.082;2023-06-10T15:13:17;2.72;;;1.00;;
55989;SDS011;41875;55.806;38.082;2023-06-10T15:15:46;2.80;;;0.77;;
55989;SDS011;41875;55.806;38.082;2023-06-10T15:20:43;2.80;;;0.85;;
55989;SDS011;41875;55.806;38.082;2023-06-10T15:23:11;1.83;;;0.80;;
55989;SDS011;41875;55.806;38.082;2023-06-10T15:25:40;3.58;;;1.05;;
55989;SDS011;41875;55.806;38.082;2023-06-10T15:30:38;4.55;;;1.15;;
55989;SDS011;41875;55.806;38.082;2023-06-10T15:33:07;2.72;;;0.90;;
55989;SDS011;41875;55.806;38.082;2023-06-10T15:35:36;1.65;;;0.90;;
55989;SDS011;41875;55.806;38.082;2023-06-10T15:38:04;6.55;;;1.25;;
55989;SDS011;41875;55.806;38.082;2023-06-10T15:40:33;3.88;;;1.08;;
55989;SDS011;41875;55.806;38.082;2023-06-10T15:43:02;3.45;;;0.85;;
55989;SDS011;41875;55.806;38.082;2023-06-10T15:48:03;2.38;;;0.40;;
55989;SDS011;41875;55.806;38.082;2023-06-10T15:50:33;2.53;;;0.65;;
55989;SDS011;41875;55.806;38.082;2023-06-10T15:53:02;1.52;;;0.40;;
55989;SDS011;41875;55.806;38.082;2023-06-10T15:55:30;1.48;;;0.70;;
55989;SDS011;41875;55.806;38.082;2023-06-10T16:00:30;3.30;;;1.00;;
55989;SDS011;41875;55.806;38.082;2023-06-10T16:02:59;3.22;;;0.80;;
55989;SDS011;41875;55.806;38.082;2023-06-10T16:05:29;3.03;;;0.93;;
55989;SDS011;41875;55.806;38.082;2023-06-10T16:07:58;1.98;;;0.80;;
55989;SDS011;41875;55.806;38.082;2023-06-10T16:10:29;2.92;;;1.00;;
55989;SDS011;41875;55.806;38.082;2023-06-10T16:12:57;3.28;;;0.93;;